createdAt,value
2022-10-29T01:17:21.195Z,59.60
2022-10-29T01:20:41.513Z,59.79
2022-10-29T01:23:18.123Z,59.87
2022-10-29T01:26:11.611Z,59.43
2022-10-29T01:29:10.396Z,59.59
2022-10-29T01:32:02.068Z,59.46
2022-10-29T01:34:42.006Z,59.49
2022-10-29T01:37:41.794Z,59.17
2022-10-29T01:40:38.671Z,59.04
2022-10-29T01:46:17.016Z,58.96
2022-10-29T01:48:51.640Z,58.83
2022-10-29T01:51:28.507Z,59.24
2022-10-29T01:53:59.450Z,58.96
2022-10-29T01:56:27.579Z,59.29
2022-10-29T01:58:59.797Z,59.00
2022-10-29T02:01:41.597Z,58.95
2022-10-29T02:04:41.847Z,58.95
2022-10-29T02:07:44.093Z,58.90
2022-10-29T02:10:25.710Z,58.90
2022-10-29T02:12:56.196Z,58.80
2022-10-29T02:15:48.277Z,58.80
2022-10-29T02:18:17.520Z,58.95
2022-10-29T02:20:47.470Z,58.92
2022-10-29T02:23:16.773Z,58.69
2022-10-29T02:25:44.884Z,58.80
2022-10-29T02:51:32.008Z,59.47
2022-10-29T02:54:00.182Z,59.36
2022-10-29T02:56:28.111Z,59.11
2022-10-29T02:58:55.894Z,59.48
2022-10-29T03:01:24.165Z,59.18
2022-10-29T03:03:54.697Z,59.16
2022-10-29T03:06:42.455Z,59.42
2022-10-29T03:09:10.926Z,59.42
2022-10-29T03:11:38.632Z,59.63
2022-10-29T03:14:06.679Z,59.58
2022-10-29T03:16:34.711Z,59.39
2022-10-29T03:19:02.710Z,59.27
2022-10-29T03:21:30.790Z,59.23
2022-10-29T03:23:59.660Z,59.23
2022-10-29T03:26:27.836Z,59.22
2022-10-29T03:28:56.565Z,59.03
2022-10-29T03:31:24.932Z,59.03
2022-10-29T03:33:53.206Z,58.88
2022-10-29T03:36:20.993Z,58.92
2022-10-29T03:38:49.180Z,58.72
2022-10-29T03:41:17.533Z,58.85
2022-10-29T03:43:46.004Z,58.83
2022-10-29T03:46:13.856Z,58.62
2022-10-29T03:48:42.064Z,58.77
2022-10-29T03:51:11.181Z,58.86
2022-10-29T03:53:40.781Z,58.99
2022-10-29T03:56:10.585Z,58.95
2022-10-29T03:58:38.771Z,58.95
2022-10-29T04:01:09.758Z,58.90
2022-10-29T04:03:42.140Z,58.99
2022-10-29T04:06:15.782Z,59.07
2022-10-29T04:08:44.085Z,59.10
2022-10-29T04:11:13.838Z,58.97
2022-10-29T04:13:41.668Z,59.20
2022-10-29T04:16:09.880Z,58.82
2022-10-29T04:18:37.767Z,58.80
2022-10-29T04:29:34.389Z,58.69
2022-10-29T04:32:02.273Z,58.68
2022-10-29T04:34:30.511Z,58.86
2022-10-29T04:36:58.360Z,58.73
2022-10-29T04:39:26.318Z,58.67
2022-10-29T04:41:55.733Z,58.62
2022-10-29T04:44:23.485Z,58.77
2022-10-29T04:46:51.735Z,58.71
2022-10-29T04:49:19.857Z,58.82
2022-10-29T04:51:47.662Z,58.69
2022-10-29T04:54:17.605Z,58.62
2022-10-29T04:56:45.712Z,58.61
2022-10-29T04:59:13.685Z,58.74
2022-10-29T05:01:41.667Z,58.71
2022-10-29T05:04:09.863Z,58.67
2022-10-29T05:06:38.062Z,58.80
2022-10-29T05:09:06.291Z,58.94
2022-10-29T05:11:36.840Z,58.88
2022-10-29T05:14:04.707Z,58.92
2022-10-29T05:16:32.868Z,58.99
2022-10-29T05:19:01.316Z,58.99
2022-10-29T05:21:29.292Z,58.81
2022-10-29T05:23:57.959Z,58.87
2022-10-29T05:26:25.705Z,58.58
2022-10-29T05:28:54.282Z,58.58
2022-10-29T05:31:22.086Z,58.60
2022-10-29T05:33:53.894Z,58.52
2022-10-29T05:36:24.193Z,58.48
2022-10-29T05:38:52.118Z,58.60
2022-10-29T05:41:21.117Z,58.52
2022-10-29T05:43:50.830Z,58.57
2022-10-29T05:46:18.867Z,58.56
2022-10-29T05:48:47.601Z,58.51
2022-10-29T05:51:16.766Z,58.58
2022-10-29T05:53:44.966Z,58.55
2022-10-29T05:56:13.057Z,58.54
2022-10-29T05:58:42.598Z,58.63
2022-10-29T06:01:12.039Z,58.89
2022-10-29T06:03:40.263Z,58.73
2022-10-29T06:06:09.195Z,58.82
2022-10-29T06:08:37.466Z,58.93
2022-10-29T06:11:05.505Z,59.07
2022-10-29T06:13:33.563Z,59.02
2022-10-29T06:16:01.579Z,59.26
2022-10-29T06:18:29.883Z,59.15
2022-10-29T06:21:01.730Z,59.21
2022-10-29T06:23:30.763Z,59.38
2022-10-29T06:26:01.956Z,59.25
2022-10-29T06:28:33.650Z,59.30
2022-10-29T06:31:02.963Z,59.28
2022-10-29T06:33:33.421Z,59.12
2022-10-29T06:36:02.413Z,59.23
2022-10-29T06:38:30.810Z,59.17
2022-10-29T06:40:59.409Z,59.12
2022-10-29T06:43:27.400Z,59.17
2022-10-29T06:45:55.823Z,59.19
2022-10-29T06:48:24.171Z,59.24
2022-10-29T06:50:52.491Z,59.15
2022-10-29T06:53:21.041Z,59.21
2022-10-29T06:55:49.186Z,59.30
2022-10-29T06:58:21.052Z,59.53
2022-10-29T07:00:49.779Z,59.48
2022-10-29T07:03:22.491Z,59.36
2022-10-29T07:05:57.313Z,59.52
2022-10-29T07:08:29.098Z,59.63
2022-10-29T07:10:57.725Z,59.90
2022-10-29T07:13:26.010Z,59.91
2022-10-29T07:15:54.027Z,60.06
2022-10-29T07:18:22.680Z,60.01
2022-10-29T07:20:52.344Z,60.02
2022-10-29T07:23:20.492Z,60.07
2022-10-29T07:25:53.605Z,60.28
2022-10-29T07:28:23.251Z,60.06
2022-10-29T07:30:53.391Z,60.10
2022-10-29T07:33:21.358Z,60.12
2022-10-29T07:35:49.742Z,60.21
2022-10-29T07:38:18.201Z,59.97
2022-10-29T07:40:50.728Z,60.07
2022-10-29T07:43:20.971Z,60.01
2022-10-29T07:45:51.026Z,59.95
2022-10-29T07:48:20.940Z,60.05
2022-10-29T07:50:50.063Z,60.21
2022-10-29T07:53:17.989Z,60.15
2022-10-29T07:55:56.086Z,59.93
2022-10-29T07:58:26.105Z,60.19
2022-10-29T08:00:55.240Z,60.05
2022-10-29T08:03:23.375Z,60.25
2022-10-29T08:05:56.305Z,60.31
2022-10-29T08:08:25.314Z,60.13
2022-10-29T08:10:53.337Z,60.22
2022-10-29T08:13:21.449Z,60.24
2022-10-29T08:15:50.279Z,60.34
2022-10-29T08:18:18.617Z,60.43
2022-10-29T08:20:47.257Z,60.50
2022-10-29T08:23:15.841Z,60.45
2022-10-29T08:25:44.842Z,60.14
2022-10-29T08:28:15.653Z,60.16
2022-10-29T08:30:44.859Z,60.17
2022-10-29T08:33:16.912Z,60.15
2022-10-29T08:35:44.875Z,60.14
2022-10-29T08:38:15.328Z,60.23
2022-10-29T08:41:17.255Z,60.27
2022-10-29T08:44:14.782Z,60.01
2022-10-29T08:47:01.287Z,60.36
2022-10-29T08:49:45.627Z,60.13
2022-10-29T08:52:24.368Z,60.39
2022-10-29T08:55:13.847Z,59.90
2022-10-29T08:57:59.658Z,60.01
2022-10-29T09:00:38.681Z,59.80
2022-10-29T09:03:13.117Z,59.90
2022-10-29T09:06:16.020Z,59.28
2022-10-29T09:09:38.773Z,59.28
2022-10-29T09:12:30.867Z,60.01
2022-10-29T09:15:26.371Z,59.87
2022-10-29T09:18:19.365Z,59.16
2022-10-29T09:21:14.067Z,58.95
2022-10-29T09:24:15.506Z,58.67
2022-10-29T09:27:08.086Z,58.40
2022-10-29T09:29:58.958Z,58.06
2022-10-29T09:32:59.835Z,57.69
2022-10-29T09:35:49.711Z,57.65
2022-10-29T09:38:24.536Z,57.76
2022-10-29T09:40:53.009Z,57.42
2022-10-29T09:43:47.248Z,56.83
2022-10-29T09:46:39.871Z,56.81
2022-10-29T09:50:08.633Z,56.83
2022-10-29T09:52:43.466Z,56.90
2022-10-29T09:55:45.380Z,56.65
2022-10-29T09:58:25.391Z,56.39
2022-10-29T10:00:57.156Z,56.31
2022-10-29T10:03:45.918Z,55.99
2022-10-29T10:06:17.215Z,56.21
2022-10-29T10:09:01.074Z,57.06
2022-10-29T10:11:52.882Z,56.66
2022-10-29T10:14:24.159Z,56.53
2022-10-29T10:17:00.566Z,56.18
2022-10-29T10:19:32.853Z,55.81
2022-10-29T10:22:04.505Z,55.41
2022-10-29T10:24:36.019Z,55.17
2022-10-29T10:27:19.612Z,54.43
2022-10-29T10:30:18.292Z,54.60
2022-10-29T10:33:19.921Z,54.51
2022-10-29T10:35:48.179Z,55.31
2022-10-29T10:38:16.623Z,55.04
2022-10-29T10:40:53.595Z,54.04
2022-10-29T10:43:25.924Z,53.67
2022-10-29T10:46:06.771Z,53.47
2022-10-29T10:51:32.538Z,53.09
2022-10-29T10:54:07.227Z,53.10
2022-10-29T10:57:13.211Z,52.92
2022-10-29T11:00:02.532Z,53.21
2022-10-29T11:02:56.441Z,53.11
2022-10-29T11:06:08.846Z,53.41
2022-10-29T11:08:48.721Z,53.40
2022-10-29T11:11:27.865Z,53.23
2022-10-29T11:14:04.184Z,53.41
2022-10-29T11:16:53.059Z,53.18
2022-10-29T11:19:41.673Z,53.29
2022-10-29T11:22:53.222Z,52.95
2022-10-29T11:25:29.747Z,53.52
2022-10-29T11:28:23.754Z,53.17
2022-10-29T11:31:00.225Z,53.26
2022-10-29T11:33:59.469Z,52.85
2022-10-29T11:36:34.804Z,53.10
2022-10-29T11:39:19.410Z,52.96
2022-10-29T11:42:01.518Z,52.59
2022-10-29T11:44:37.407Z,52.82
2022-10-29T11:48:03.084Z,52.79
2022-10-29T11:51:07.657Z,52.93
2022-10-29T11:54:01.075Z,52.67
2022-10-29T11:56:56.767Z,52.46
2022-10-29T11:59:37.862Z,52.23
2022-10-29T12:02:40.747Z,52.29
2022-10-29T12:06:17.542Z,52.62
2022-10-29T12:09:18.738Z,52.36
2022-10-29T12:12:08.454Z,52.59
2022-10-29T12:14:47.550Z,52.48
2022-10-29T12:17:33.411Z,51.70
2022-10-29T12:20:41.601Z,51.87
2022-10-29T12:23:35.317Z,52.03
2022-10-29T12:26:36.156Z,51.78
2022-10-29T12:29:44.297Z,51.71
2022-10-29T12:33:20.220Z,51.65
2022-10-29T12:38:54.120Z,51.42
2022-10-29T12:41:48.742Z,51.14
2022-10-29T12:44:35.689Z,50.74
2022-10-29T12:47:18.359Z,50.57
2022-10-29T12:50:16.494Z,50.59
2022-10-29T12:53:15.692Z,50.73
2022-10-29T12:55:46.755Z,51.16
2022-10-29T12:58:42.720Z,50.43
2022-10-29T13:01:57.176Z,50.26
2022-10-29T13:04:31.756Z,50.19
2022-10-29T13:07:06.617Z,50.33
2022-10-29T13:09:37.159Z,50.30
2022-10-29T13:12:11.713Z,50.16
2022-10-29T13:14:52.525Z,50.12
2022-10-29T13:17:27.531Z,50.07
2022-10-29T13:20:39.638Z,49.71
2022-10-29T13:23:56.648Z,49.89
2022-10-29T13:27:16.195Z,50.21
2022-10-29T13:29:50.513Z,50.19
2022-10-29T13:32:39.002Z,50.03
2022-10-29T13:35:27.407Z,49.91
2022-10-29T13:38:08.625Z,49.94
2022-10-29T13:40:41.514Z,50.23
2022-10-29T13:43:30.572Z,50.20
2022-10-29T13:46:26.479Z,49.99
2022-10-29T13:48:58.001Z,50.05
2022-10-29T13:51:50.031Z,49.98
2022-10-29T13:54:39.328Z,50.12
2022-10-29T13:57:13.396Z,50.10
2022-10-29T13:59:54.236Z,49.98
2022-10-29T14:02:39.841Z,49.96
2022-10-29T14:05:38.031Z,49.95
2022-10-29T14:08:49.090Z,50.52
2022-10-29T14:11:38.297Z,50.48
2022-10-29T14:14:29.147Z,50.67
2022-10-29T14:17:18.993Z,50.87
2022-10-29T14:19:51.303Z,50.96
2022-10-29T14:22:19.078Z,51.33
2022-10-29T14:24:47.454Z,51.07
2022-10-29T14:27:15.983Z,51.04
2022-10-29T14:29:44.856Z,51.51
2022-10-29T14:32:15.707Z,51.67
2022-10-29T14:34:52.283Z,51.75
2022-10-29T14:37:36.035Z,51.95
2022-10-29T14:40:26.823Z,52.21
2022-10-29T14:42:56.862Z,52.41
2022-10-29T14:45:31.266Z,52.67
2022-10-29T14:48:09.082Z,52.85
2022-10-29T14:50:37.157Z,53.10
2022-10-29T14:53:26.669Z,52.96
2022-10-29T14:55:55.129Z,53.02
2022-10-29T14:58:34.210Z,52.56
2022-10-29T15:01:15.004Z,53.00
2022-10-29T15:03:43.278Z,53.03
2022-10-29T15:06:27.260Z,53.04
2022-10-29T15:09:03.687Z,53.33
2022-10-29T15:11:38.364Z,53.41
2022-10-29T15:14:25.440Z,53.28
2022-10-29T15:16:53.743Z,53.65
2022-10-29T15:19:22.865Z,53.50
2022-10-29T15:21:51.121Z,53.71
2022-10-29T15:24:24.764Z,53.50
2022-10-29T15:26:58.962Z,53.74
2022-10-29T15:29:35.409Z,53.45
2022-10-29T15:32:11.259Z,53.84
2022-10-29T15:34:40.775Z,53.56
2022-10-29T15:37:21.523Z,53.57
2022-10-29T15:40:18.229Z,54.04
2022-10-29T15:42:46.835Z,53.97
2022-10-29T15:45:21.653Z,54.26
2022-10-29T15:48:46.194Z,54.48
2022-10-29T15:51:33.193Z,54.72
2022-10-29T15:54:03.659Z,54.70
2022-10-29T15:56:33.235Z,54.80
2022-10-29T15:59:02.079Z,54.98
2022-10-29T16:25:32.316Z,56.01
2022-10-29T16:28:39.556Z,55.92
2022-10-29T16:31:29.648Z,56.31
2022-10-29T16:42:38.345Z,56.90
2022-10-29T16:45:10.185Z,56.67
2022-10-29T16:47:38.354Z,56.88
2022-10-29T16:50:07.450Z,56.68
2022-10-29T16:52:35.348Z,56.79
2022-10-29T16:55:03.854Z,56.85
2022-10-29T16:57:31.731Z,56.87
2022-10-29T16:59:59.492Z,56.72
2022-10-29T17:02:28.390Z,56.73
2022-10-29T17:04:56.259Z,57.00
2022-10-29T17:07:25.363Z,56.75
2022-10-29T17:09:54.177Z,56.58
2022-10-29T17:12:22.522Z,56.74
2022-10-29T17:14:50.882Z,56.87
2022-10-29T17:17:19.505Z,56.90
2022-10-29T17:19:51.281Z,57.06
2022-10-29T17:22:19.819Z,57.14
2022-10-29T17:24:48.442Z,56.82
2022-10-29T17:27:16.996Z,57.10
2022-10-29T17:29:46.443Z,57.01
2022-10-29T17:32:14.502Z,57.22
2022-10-29T17:34:44.766Z,57.19
2022-10-29T17:37:12.742Z,57.29
2022-10-29T17:39:41.509Z,57.16
2022-10-29T17:42:10.378Z,57.23
2022-10-29T17:44:40.856Z,57.04
2022-10-29T17:47:09.272Z,57.24
2022-10-29T17:49:39.142Z,57.17
2022-10-29T17:52:07.660Z,57.27
2022-10-29T17:54:35.986Z,57.27
2022-10-29T17:57:04.348Z,57.44
2022-10-29T17:59:34.001Z,57.62
2022-10-29T18:02:04.281Z,57.42
2022-10-29T18:04:33.037Z,57.71
2022-10-29T18:07:02.791Z,57.57
2022-10-29T18:09:32.914Z,57.68
2022-10-29T18:12:02.375Z,57.70
2022-10-29T18:14:34.635Z,57.57
2022-10-29T18:17:03.408Z,57.56
2022-10-29T18:19:34.033Z,57.58
2022-10-29T18:22:02.766Z,57.74
2022-10-29T18:24:30.923Z,57.79
2022-10-29T18:26:59.108Z,57.74
2022-10-29T18:29:27.696Z,57.70
2022-10-29T18:31:55.729Z,57.88
2022-10-29T18:34:23.968Z,57.89
2022-10-29T18:36:52.103Z,57.50
2022-10-29T18:39:21.063Z,57.92
2022-10-29T18:41:49.444Z,57.86
2022-10-29T18:44:18.151Z,57.92
2022-10-29T18:46:46.705Z,57.97
2022-10-29T18:49:17.888Z,57.99
2022-10-29T18:51:46.069Z,58.24
2022-10-29T18:54:14.982Z,58.02
2022-10-29T18:56:44.075Z,58.16
2022-10-29T18:59:12.974Z,57.94
2022-10-29T19:01:41.161Z,58.08
2022-10-29T19:04:14.600Z,57.96
2022-10-29T19:06:43.953Z,58.04
2022-10-29T19:09:15.140Z,58.11
2022-10-29T19:11:43.885Z,58.14
2022-10-29T19:14:14.508Z,58.06
2022-10-29T19:16:51.507Z,58.01
2022-10-29T19:19:22.954Z,58.22
2022-10-29T19:21:54.077Z,58.35
2022-10-29T19:24:22.665Z,58.03
2022-10-29T19:26:51.594Z,58.35
2022-10-29T19:29:20.274Z,58.33
2022-10-29T19:31:48.815Z,58.10
2022-10-29T19:34:17.241Z,58.20
2022-10-29T19:36:45.395Z,58.37
2022-10-29T19:39:13.727Z,58.47
2022-10-29T19:41:42.027Z,58.50
2022-10-29T19:44:10.360Z,58.40
2022-10-29T19:46:39.029Z,58.41
2022-10-29T19:49:08.095Z,58.28
2022-10-29T19:51:36.600Z,58.48
2022-10-29T19:54:07.370Z,58.40
2022-10-29T19:56:35.615Z,58.47
2022-10-29T19:59:05.740Z,58.26
2022-10-29T20:01:38.752Z,58.38
2022-10-29T20:04:11.773Z,58.15
2022-10-29T20:06:44.048Z,58.31
2022-10-29T20:09:12.198Z,58.17
2022-10-29T20:11:41.964Z,58.17
2022-10-29T20:14:10.417Z,58.19
2022-10-29T20:16:39.731Z,58.28
2022-10-29T20:19:09.208Z,58.52
2022-10-29T20:21:38.369Z,58.37
2022-10-29T20:24:06.798Z,58.62
2022-10-29T20:26:35.052Z,58.37
2022-10-29T20:29:03.447Z,58.57
2022-10-29T20:31:34.731Z,58.67
2022-10-29T20:34:06.305Z,58.64
2022-10-29T20:36:36.292Z,58.65
2022-10-29T20:39:04.869Z,58.75
2022-10-29T20:41:33.693Z,58.74
2022-10-29T20:44:03.703Z,58.78
2022-10-29T20:46:32.076Z,58.82
2022-10-29T20:49:01.197Z,58.81
2022-10-29T20:51:30.895Z,58.71
2022-10-29T20:54:01.204Z,59.02
2022-10-29T20:56:31.219Z,58.90
2022-10-29T20:59:02.939Z,59.00
2022-10-29T21:01:33.046Z,58.75
2022-10-29T21:04:01.920Z,58.74
2022-10-29T21:06:30.463Z,58.86
2022-10-29T21:08:58.708Z,59.08
2022-10-29T21:11:26.563Z,58.88
2022-10-29T21:13:54.948Z,58.97
2022-10-29T21:16:28.401Z,59.09
2022-10-29T21:19:01.765Z,59.15
2022-10-29T21:21:31.978Z,59.15
2022-10-29T21:24:00.240Z,59.36
2022-10-29T21:26:30.254Z,59.24
2022-10-29T21:28:59.976Z,59.44
2022-10-29T21:31:27.846Z,59.41
2022-10-29T21:33:56.990Z,59.68
2022-10-29T21:36:24.944Z,59.53
2022-10-29T21:38:52.822Z,59.53
2022-10-29T21:41:20.744Z,59.51
2022-10-29T21:43:48.876Z,59.59
2022-10-29T21:46:18.040Z,59.65
2022-10-29T21:48:47.740Z,59.67
2022-10-29T21:51:17.353Z,59.54
2022-10-29T21:53:47.066Z,59.54
2022-10-29T21:56:16.678Z,59.32
2022-10-29T21:58:45.353Z,59.59
2022-10-29T22:01:17.922Z,59.33
2022-10-29T22:03:47.618Z,59.21
2022-10-29T22:06:20.210Z,59.31
2022-10-29T22:08:57.164Z,59.10
2022-10-29T22:11:27.141Z,59.14
2022-10-29T22:13:55.439Z,59.09
2022-10-29T22:16:23.436Z,59.07
2022-10-29T22:18:51.608Z,59.13
2022-10-29T22:21:23.011Z,59.03
2022-10-29T22:23:56.377Z,59.03
2022-10-29T22:26:28.891Z,59.03
2022-10-29T22:28:57.478Z,58.99
2022-10-29T22:31:25.928Z,58.85
2022-10-29T22:33:54.529Z,59.01
2022-10-29T22:36:26.090Z,58.67
2022-10-29T22:38:58.976Z,58.82
2022-10-29T22:41:28.921Z,58.91
2022-10-29T22:43:59.263Z,59.04
2022-10-29T22:46:29.121Z,58.94
2022-10-29T22:48:57.755Z,59.29
2022-10-29T22:51:29.395Z,58.85
2022-10-29T22:53:58.980Z,58.93
2022-10-29T22:56:34.402Z,58.82
2022-10-29T22:59:07.441Z,58.83
2022-10-29T23:01:40.602Z,58.93
2022-10-29T23:04:12.271Z,58.82
2022-10-29T23:06:40.242Z,58.79
2022-10-29T23:09:08.937Z,58.83
2022-10-29T23:11:39.233Z,58.88
2022-10-29T23:14:07.320Z,59.17
2022-10-29T23:16:37.388Z,58.93
2022-10-29T23:19:06.728Z,59.14
2022-10-29T23:21:34.949Z,59.12
2022-10-29T23:24:03.588Z,59.00
2022-10-29T23:26:31.528Z,59.21
2022-10-29T23:28:59.369Z,59.39
2022-10-29T23:31:29.352Z,59.36
2022-10-29T23:33:58.932Z,59.38
2022-10-29T23:36:27.980Z,59.45
2022-10-29T23:39:01.764Z,59.63
2022-10-29T23:41:31.421Z,59.99
2022-10-29T23:44:00.243Z,60.26
2022-10-29T23:46:28.979Z,60.09
2022-10-29T23:48:57.161Z,60.38
2022-10-29T23:51:24.960Z,60.37
2022-10-29T23:53:56.500Z,60.28
2022-10-29T23:56:26.188Z,60.38
2022-10-29T23:58:54.314Z,60.74
